sensor_id;sensor_type;location;lat;lon;timestamp;P1;durP1;ratioP1;P2;durP2;ratioP2
76262;SDS011;65080;50.908;6.916;2022-11-28T13:12:45;22.23;;;11.13;;
76262;SDS011;65080;50.908;6.916;2022-11-28T13:15:24;23.70;;;13.43;;
76262;SDS011;65080;50.908;6.916;2022-11-28T13:18:07;19.43;;;13.20;;
76262;SDS011;65080;50.908;6.916;2022-11-28T13:20:48;21.00;;;14.90;;
76262;SDS011;65080;50.908;6.916;2022-11-28T13:23:23;16.93;;;11.97;;
76262;SDS011;65080;50.908;6.916;2022-11-28T13:25:58;17.47;;;12.37;;
76262;SDS011;65080;50.908;6.916;2022-11-28T13:28:35;14.50;;;11.20;;
76262;SDS011;65080;50.908;6.916;2022-11-28T13:31:12;14.07;;;11.23;;
76262;SDS011;65080;50.908;6.916;2022-11-28T13:33:49;14.53;;;10.97;;
76262;SDS011;65080;50.908;6.916;2022-11-28T13:36:20;12.83;;;9.27;;
76262;SDS011;65080;50.908;6.916;2022-11-28T13:39:20;15.47;;;9.87;;
76262;SDS011;65080;50.908;6.916;2022-11-28T13:41:58;12.47;;;9.10;;
76262;SDS011;65080;50.908;6.916;2022-11-28T13:44:56;16.23;;;10.07;;
76262;SDS011;65080;50.908;6.916;2022-11-28T13:47:29;14.27;;;9.63;;
76262;SDS011;65080;50.908;6.916;2022-11-28T13:53:21;12.27;;;9.00;;
76262;SDS011;65080;50.908;6.916;2022-11-28T13:55:50;15.27;;;9.67;;
76262;SDS011;65080;50.908;6.916;2022-11-28T13:58:42;14.20;;;9.27;;
76262;SDS011;65080;50.908;6.916;2022-11-28T14:01:19;14.03;;;10.30;;
76262;SDS011;65080;50.908;6.916;2022-11-28T14:03:50;14.53;;;9.00;;
76262;SDS011;65080;50.908;6.916;2022-11-28T14:06:28;13.70;;;9.60;;
76262;SDS011;65080;50.908;6.916;2022-11-28T14:09:07;16.57;;;9.17;;
76262;SDS011;65080;50.908;6.916;2022-11-28T14:11:58;13.33;;;9.00;;
76262;SDS011;65080;50.908;6.916;2022-11-28T14:14:43;15.50;;;9.27;;
76262;SDS011;65080;50.908;6.916;2022-11-28T14:17:25;15.40;;;9.97;;
76262;SDS011;65080;50.908;6.916;2022-11-28T14:20:09;15.80;;;10.23;;
76262;SDS011;65080;50.908;6.916;2022-11-28T14:22:49;15.60;;;10.03;;
76262;SDS011;65080;50.908;6.916;2022-11-28T14:25:26;12.93;;;10.17;;
76262;SDS011;65080;50.908;6.916;2022-11-28T14:27:58;15.43;;;9.67;;
76262;SDS011;65080;50.908;6.916;2022-11-28T14:30:29;15.83;;;10.10;;
76262;SDS011;65080;50.908;6.916;2022-11-28T14:33:03;21.03;;;10.37;;
76262;SDS011;65080;50.908;6.916;2022-11-28T14:36:04;11.80;;;9.40;;
76262;SDS011;65080;50.908;6.916;2022-11-28T14:38:58;12.60;;;8.57;;
76262;SDS011;65080;50.908;6.916;2022-11-28T14:48:12;16.00;;;9.10;;
76262;SDS011;65080;50.908;6.916;2022-11-28T14:50:48;14.83;;;8.03;;
76262;SDS011;65080;50.908;6.916;2022-11-28T14:53:42;11.97;;;7.90;;
76262;SDS011;65080;50.908;6.916;2022-11-28T14:56:23;10.47;;;8.07;;
76262;SDS011;65080;50.908;6.916;2022-11-28T14:58:55;10.90;;;7.73;;
76262;SDS011;65080;50.908;6.916;2022-11-28T15:01:35;14.03;;;8.73;;
76262;SDS011;65080;50.908;6.916;2022-11-28T15:07:21;10.70;;;7.40;;
76262;SDS011;65080;50.908;6.916;2022-11-28T15:09:56;10.80;;;8.00;;
76262;SDS011;65080;50.908;6.916;2022-11-28T15:12:36;10.10;;;7.20;;
76262;SDS011;65080;50.908;6.916;2022-11-28T15:15:11;13.17;;;7.83;;
76262;SDS011;65080;50.908;6.916;2022-11-28T15:17:42;10.63;;;7.80;;
76262;SDS011;65080;50.908;6.916;2022-11-28T15:20:19;13.90;;;8.03;;
76262;SDS011;65080;50.908;6.916;2022-11-28T15:22:53;12.30;;;7.70;;
76262;SDS011;65080;50.908;6.916;2022-11-28T15:25:22;11.27;;;8.00;;
76262;SDS011;65080;50.908;6.916;2022-11-28T15:27:52;11.37;;;6.90;;
76262;SDS011;65080;50.908;6.916;2022-11-28T15:30:21;10.50;;;6.97;;
76262;SDS011;65080;50.908;6.916;2022-11-28T15:32:52;14.30;;;8.00;;
76262;SDS011;65080;50.908;6.916;2022-11-28T15:35:25;11.30;;;7.63;;
76262;SDS011;65080;50.908;6.916;2022-11-28T15:37:56;12.37;;;8.87;;
76262;SDS011;65080;50.908;6.916;2022-11-28T15:40:25;10.87;;;7.33;;
76262;SDS011;65080;50.908;6.916;2022-11-28T15:42:56;11.00;;;6.80;;
76262;SDS011;65080;50.908;6.916;2022-11-28T15:45:26;12.47;;;7.87;;
76262;SDS011;65080;50.908;6.916;2022-11-28T15:47:57;11.17;;;7.80;;
76262;SDS011;65080;50.908;6.916;2022-11-28T15:50:27;12.63;;;8.00;;
76262;SDS011;65080;50.908;6.916;2022-11-28T15:52:57;16.07;;;9.20;;
76262;SDS011;65080;50.908;6.916;2022-11-28T15:55:26;13.43;;;9.40;;
76262;SDS011;65080;50.908;6.916;2022-11-28T15:58:16;14.77;;;9.73;;
76262;SDS011;65080;50.908;6.916;2022-11-28T16:00:47;10.33;;;6.77;;
76262;SDS011;65080;50.908;6.916;2022-11-28T16:03:19;10.90;;;7.20;;
76262;SDS011;65080;50.908;6.916;2022-11-28T16:05:53;12.07;;;7.90;;
76262;SDS011;65080;50.908;6.916;2022-11-28T16:08:23;13.30;;;8.57;;
76262;SDS011;65080;50.908;6.916;2022-11-28T16:10:54;12.10;;;8.00;;
76262;SDS011;65080;50.908;6.916;2022-11-28T16:13:23;11.13;;;8.70;;
76262;SDS011;65080;50.908;6.916;2022-11-28T16:15:52;12.13;;;8.70;;
76262;SDS011;65080;50.908;6.916;2022-11-28T16:18:23;14.97;;;8.80;;
76262;SDS011;65080;50.908;6.916;2022-11-28T16:20:55;12.03;;;9.23;;
76262;SDS011;65080;50.908;6.916;2022-11-28T16:23:27;11.97;;;9.60;;
76262;SDS011;65080;50.908;6.916;2022-11-28T16:25:59;12.10;;;9.57;;
76262;SDS011;65080;50.908;6.916;2022-11-28T16:28:29;14.90;;;9.90;;
76262;SDS011;65080;50.908;6.916;2022-11-28T16:31:00;19.40;;;10.70;;
76262;SDS011;65080;50.908;6.916;2022-11-28T16:33:36;19.20;;;10.47;;
76262;SDS011;65080;50.908;6.916;2022-11-28T16:36:14;20.03;;;10.07;;
76262;SDS011;65080;50.908;6.916;2022-11-28T16:38:46;15.33;;;9.53;;
76262;SDS011;65080;50.908;6.916;2022-11-28T16:41:15;12.23;;;8.83;;
76262;SDS011;65080;50.908;6.916;2022-11-28T16:43:48;12.90;;;9.23;;
76262;SDS011;65080;50.908;6.916;2022-11-28T16:46:20;11.77;;;9.00;;
76262;SDS011;65080;50.908;6.916;2022-11-28T16:48:52;13.60;;;9.30;;
76262;SDS011;65080;50.908;6.916;2022-11-28T16:51:33;12.83;;;9.00;;
76262;SDS011;65080;50.908;6.916;2022-11-28T16:54:20;13.50;;;10.47;;
76262;SDS011;65080;50.908;6.916;2022-11-28T16:57:08;13.67;;;9.33;;
76262;SDS011;65080;50.908;6.916;2022-11-28T16:59:38;11.97;;;8.47;;
76262;SDS011;65080;50.908;6.916;2022-11-28T17:02:11;13.67;;;9.30;;
76262;SDS011;65080;50.908;6.916;2022-11-28T17:04:43;15.03;;;10.00;;
76262;SDS011;65080;50.908;6.916;2022-11-28T17:07:15;13.60;;;9.10;;
76262;SDS011;65080;50.908;6.916;2022-11-28T17:09:45;17.07;;;10.27;;
76262;SDS011;65080;50.908;6.916;2022-11-28T17:12:15;14.73;;;10.20;;
76262;SDS011;65080;50.908;6.916;2022-11-28T17:14:50;14.20;;;9.37;;
76262;SDS011;65080;50.908;6.916;2022-11-28T17:17:19;12.17;;;9.80;;
76262;SDS011;65080;50.908;6.916;2022-11-28T17:19:48;14.00;;;9.80;;
76262;SDS011;65080;50.908;6.916;2022-11-28T17:22:19;12.53;;;9.50;;
76262;SDS011;65080;50.908;6.916;2022-11-28T17:24:49;18.27;;;9.93;;
76262;SDS011;65080;50.908;6.916;2022-11-28T17:27:26;14.27;;;10.07;;
76262;SDS011;65080;50.908;6.916;2022-11-28T17:29:54;12.70;;;8.77;;
76262;SDS011;65080;50.908;6.916;2022-11-28T17:32:22;11.87;;;9.33;;
76262;SDS011;65080;50.908;6.916;2022-11-28T17:34:51;11.50;;;9.07;;
76262;SDS011;65080;50.908;6.916;2022-11-28T17:37:21;13.00;;;9.10;;
76262;SDS011;65080;50.908;6.916;2022-11-28T17:39:49;14.33;;;10.53;;
76262;SDS011;65080;50.908;6.916;2022-11-28T17:42:40;15.33;;;10.60;;
76262;SDS011;65080;50.908;6.916;2022-11-28T17:45:10;13.33;;;9.70;;
76262;SDS011;65080;50.908;6.916;2022-11-28T17:47:41;12.13;;;9.57;;
76262;SDS011;65080;50.908;6.916;2022-11-28T17:50:09;14.03;;;9.40;;
76262;SDS011;65080;50.908;6.916;2022-11-28T17:52:39;15.93;;;9.53;;
76262;SDS011;65080;50.908;6.916;2022-11-28T17:55:07;11.87;;;8.53;;
76262;SDS011;65080;50.908;6.916;2022-11-28T17:57:36;13.20;;;9.50;;
76262;SDS011;65080;50.908;6.916;2022-11-28T18:00:05;14.90;;;9.27;;
76262;SDS011;65080;50.908;6.916;2022-11-28T18:02:35;12.83;;;8.83;;
76262;SDS011;65080;50.908;6.916;2022-11-28T18:05:04;13.57;;;9.70;;
76262;SDS011;65080;50.908;6.916;2022-11-28T18:07:34;13.73;;;10.23;;
76262;SDS011;65080;50.908;6.916;2022-11-28T18:10:04;12.50;;;8.50;;
76262;SDS011;65080;50.908;6.916;2022-11-28T18:12:33;12.87;;;9.73;;
76262;SDS011;65080;50.908;6.916;2022-11-28T18:15:03;14.20;;;10.07;;
76262;SDS011;65080;50.908;6.916;2022-11-28T18:17:32;13.23;;;9.50;;
76262;SDS011;65080;50.908;6.916;2022-11-28T18:20:01;11.27;;;8.73;;
76262;SDS011;65080;50.908;6.916;2022-11-28T18:22:30;10.40;;;8.27;;
76262;SDS011;65080;50.908;6.916;2022-11-28T18:24:58;12.20;;;9.00;;
76262;SDS011;65080;50.908;6.916;2022-11-28T18:27:28;10.63;;;8.60;;
76262;SDS011;65080;50.908;6.916;2022-11-28T18:29:56;11.97;;;10.47;;
76262;SDS011;65080;50.908;6.916;2022-11-28T18:32:25;11.93;;;9.93;;
76262;SDS011;65080;50.908;6.916;2022-11-28T18:34:53;11.07;;;9.50;;
76262;SDS011;65080;50.908;6.916;2022-11-28T18:37:21;13.60;;;10.20;;
76262;SDS011;65080;50.908;6.916;2022-11-28T18:39:49;14.07;;;10.20;;
76262;SDS011;65080;50.908;6.916;2022-11-28T18:42:18;15.60;;;9.87;;
76262;SDS011;65080;50.908;6.916;2022-11-28T18:44:47;12.10;;;9.67;;
76262;SDS011;65080;50.908;6.916;2022-11-28T18:47:16;12.17;;;8.17;;
76262;SDS011;65080;50.908;6.916;2022-11-28T18:49:44;18.30;;;13.67;;
76262;SDS011;65080;50.908;6.916;2022-11-28T18:52:12;16.43;;;10.53;;
76262;SDS011;65080;50.908;6.916;2022-11-28T18:54:40;34.47;;;25.40;;
76262;SDS011;65080;50.908;6.916;2022-11-28T18:57:10;18.87;;;13.93;;
76262;SDS011;65080;50.908;6.916;2022-11-28T18:59:38;17.13;;;13.37;;
76262;SDS011;65080;50.908;6.916;2022-11-28T19:02:13;15.80;;;11.57;;
76262;SDS011;65080;50.908;6.916;2022-11-28T19:04:41;15.13;;;11.30;;
76262;SDS011;65080;50.908;6.916;2022-11-28T19:07:10;13.00;;;10.17;;
76262;SDS011;65080;50.908;6.916;2022-11-28T19:09:38;17.80;;;10.63;;
76262;SDS011;65080;50.908;6.916;2022-11-28T19:12:06;17.67;;;12.00;;
76262;SDS011;65080;50.908;6.916;2022-11-28T19:14:35;18.30;;;11.80;;
76262;SDS011;65080;50.908;6.916;2022-11-28T19:17:03;13.00;;;10.90;;
76262;SDS011;65080;50.908;6.916;2022-11-28T19:19:35;14.17;;;10.57;;
76262;SDS011;65080;50.908;6.916;2022-11-28T19:22:05;16.20;;;10.53;;
76262;SDS011;65080;50.908;6.916;2022-11-28T19:24:33;17.63;;;13.13;;
76262;SDS011;65080;50.908;6.916;2022-11-28T19:27:03;13.80;;;10.57;;
76262;SDS011;65080;50.908;6.916;2022-11-28T19:29:39;15.50;;;10.30;;
76262;SDS011;65080;50.908;6.916;2022-11-28T19:32:08;14.20;;;10.73;;
76262;SDS011;65080;50.908;6.916;2022-11-28T19:34:38;13.80;;;10.53;;
76262;SDS011;65080;50.908;6.916;2022-11-28T19:37:06;15.87;;;10.60;;
76262;SDS011;65080;50.908;6.916;2022-11-28T19:39:34;14.73;;;9.80;;
76262;SDS011;65080;50.908;6.916;2022-11-28T19:42:03;16.80;;;11.20;;
76262;SDS011;65080;50.908;6.916;2022-11-28T19:44:31;14.90;;;9.40;;
76262;SDS011;65080;50.908;6.916;2022-11-28T19:47:00;12.17;;;9.93;;
76262;SDS011;65080;50.908;6.916;2022-11-28T19:49:28;14.03;;;9.63;;
76262;SDS011;65080;50.908;6.916;2022-11-28T19:51:58;12.23;;;9.37;;
76262;SDS011;65080;50.908;6.916;2022-11-28T19:54:26;12.30;;;9.40;;
76262;SDS011;65080;50.908;6.916;2022-11-28T19:56:55;17.43;;;9.57;;
76262;SDS011;65080;50.908;6.916;2022-11-28T19:59:23;12.90;;;8.63;;
76262;SDS011;65080;50.908;6.916;2022-11-28T20:01:52;12.20;;;9.00;;
76262;SDS011;65080;50.908;6.916;2022-11-28T20:04:21;13.87;;;9.53;;
76262;SDS011;65080;50.908;6.916;2022-11-28T20:06:49;14.50;;;11.50;;
76262;SDS011;65080;50.908;6.916;2022-11-28T20:09:19;13.80;;;10.03;;
76262;SDS011;65080;50.908;6.916;2022-11-28T20:11:47;25.20;;;18.03;;
76262;SDS011;65080;50.908;6.916;2022-11-28T20:14:16;13.80;;;9.90;;
76262;SDS011;65080;50.908;6.916;2022-11-28T20:16:46;16.13;;;10.27;;
76262;SDS011;65080;50.908;6.916;2022-11-28T20:19:14;14.63;;;10.53;;
76262;SDS011;65080;50.908;6.916;2022-11-28T20:21:43;15.03;;;10.03;;
76262;SDS011;65080;50.908;6.916;2022-11-28T20:24:12;9.87;;;8.67;;
76262;SDS011;65080;50.908;6.916;2022-11-28T20:26:42;11.30;;;9.50;;
76262;SDS011;65080;50.908;6.916;2022-11-28T20:29:11;17.70;;;10.20;;
76262;SDS011;65080;50.908;6.916;2022-11-28T20:31:42;14.13;;;11.30;;
76262;SDS011;65080;50.908;6.916;2022-11-28T20:34:12;14.70;;;11.00;;
76262;SDS011;65080;50.908;6.916;2022-11-28T20:36:41;13.73;;;11.30;;
76262;SDS011;65080;50.908;6.916;2022-11-28T20:39:10;16.80;;;11.00;;
76262;SDS011;65080;50.908;6.916;2022-11-28T20:41:39;12.77;;;10.70;;
76262;SDS011;65080;50.908;6.916;2022-11-28T20:44:09;15.97;;;12.20;;
76262;SDS011;65080;50.908;6.916;2022-11-28T20:46:37;16.43;;;12.43;;
76262;SDS011;65080;50.908;6.916;2022-11-28T20:49:06;20.57;;;12.60;;
76262;SDS011;65080;50.908;6.916;2022-11-28T20:51:34;19.30;;;12.23;;
76262;SDS011;65080;50.908;6.916;2022-11-28T20:54:03;17.43;;;11.07;;
76262;SDS011;65080;50.908;6.916;2022-11-28T20:56:33;17.10;;;12.53;;
76262;SDS011;65080;50.908;6.916;2022-11-28T20:59:26;20.53;;;13.00;;
76262;SDS011;65080;50.908;6.916;2022-11-28T21:01:54;18.20;;;12.10;;
76262;SDS011;65080;50.908;6.916;2022-11-28T21:04:22;19.47;;;12.63;;
76262;SDS011;65080;50.908;6.916;2022-11-28T21:06:50;19.50;;;11.27;;
76262;SDS011;65080;50.908;6.916;2022-11-28T21:09:19;14.83;;;10.80;;
76262;SDS011;65080;50.908;6.916;2022-11-28T21:11:47;15.00;;;10.93;;
76262;SDS011;65080;50.908;6.916;2022-11-28T21:14:25;13.30;;;10.53;;
76262;SDS011;65080;50.908;6.916;2022-11-28T21:16:55;13.70;;;10.13;;
76262;SDS011;65080;50.908;6.916;2022-11-28T21:19:24;13.27;;;10.37;;
76262;SDS011;65080;50.908;6.916;2022-11-28T21:21:52;13.93;;;10.10;;
76262;SDS011;65080;50.908;6.916;2022-11-28T21:24:21;19.80;;;11.33;;
76262;SDS011;65080;50.908;6.916;2022-11-28T21:26:49;17.13;;;10.07;;
76262;SDS011;65080;50.908;6.916;2022-11-28T21:29:20;19.67;;;10.30;;
76262;SDS011;65080;50.908;6.916;2022-11-28T21:31:51;15.83;;;10.33;;
76262;SDS011;65080;50.908;6.916;2022-11-28T21:34:20;13.40;;;8.60;;
76262;SDS011;65080;50.908;6.916;2022-11-28T21:36:48;15.40;;;9.60;;
76262;SDS011;65080;50.908;6.916;2022-11-28T21:39:18;12.80;;;9.70;;
76262;SDS011;65080;50.908;6.916;2022-11-28T21:41:47;13.60;;;10.00;;
76262;SDS011;65080;50.908;6.916;2022-11-28T21:44:17;15.63;;;9.83;;
76262;SDS011;65080;50.908;6.916;2022-11-28T21:46:47;16.30;;;10.27;;
76262;SDS011;65080;50.908;6.916;2022-11-28T21:49:17;14.77;;;9.17;;
76262;SDS011;65080;50.908;6.916;2022-11-28T21:51:45;10.90;;;8.53;;
76262;SDS011;65080;50.908;6.916;2022-11-28T21:54:13;17.67;;;9.27;;
76262;SDS011;65080;50.908;6.916;2022-11-28T21:56:41;15.27;;;10.60;;
76262;SDS011;65080;50.908;6.916;2022-11-28T21:59:10;12.87;;;8.90;;
76262;SDS011;65080;50.908;6.916;2022-11-28T22:01:38;13.60;;;9.20;;
76262;SDS011;65080;50.908;6.916;2022-11-28T22:04:07;13.27;;;9.27;;
76262;SDS011;65080;50.908;6.916;2022-11-28T22:06:37;17.13;;;9.33;;
76262;SDS011;65080;50.908;6.916;2022-11-28T22:09:06;12.13;;;7.10;;
76262;SDS011;65080;50.908;6.916;2022-11-28T22:11:35;14.23;;;7.80;;
76262;SDS011;65080;50.908;6.916;2022-11-28T22:14:04;15.70;;;8.17;;
76262;SDS011;65080;50.908;6.916;2022-11-28T22:16:33;10.03;;;7.23;;
76262;SDS011;65080;50.908;6.916;2022-11-28T22:19:01;9.73;;;7.10;;
76262;SDS011;65080;50.908;6.916;2022-11-28T22:21:29;10.60;;;7.30;;
76262;SDS011;65080;50.908;6.916;2022-11-28T22:24:19;16.67;;;7.90;;
76262;SDS011;65080;50.908;6.916;2022-11-28T22:26:48;13.43;;;7.00;;
76262;SDS011;65080;50.908;6.916;2022-11-28T22:29:16;11.97;;;7.43;;
76262;SDS011;65080;50.908;6.916;2022-11-28T22:31:45;10.77;;;7.73;;
76262;SDS011;65080;50.908;6.916;2022-11-28T22:34:13;12.97;;;7.70;;
76262;SDS011;65080;50.908;6.916;2022-11-28T22:36:41;16.03;;;8.50;;
76262;SDS011;65080;50.908;6.916;2022-11-28T22:39:09;13.10;;;8.37;;
76262;SDS011;65080;50.908;6.916;2022-11-28T22:41:39;10.80;;;7.40;;
76262;SDS011;65080;50.908;6.916;2022-11-28T22:44:09;14.90;;;8.50;;
76262;SDS011;65080;50.908;6.916;2022-11-28T22:46:37;10.73;;;7.73;;
76262;SDS011;65080;50.908;6.916;2022-11-28T22:49:06;12.30;;;7.50;;
76262;SDS011;65080;50.908;6.916;2022-11-28T22:51:34;10.00;;;7.10;;
76262;SDS011;65080;50.908;6.916;2022-11-28T22:54:03;13.70;;;7.57;;
76262;SDS011;65080;50.908;6.916;2022-11-28T22:56:32;12.10;;;7.40;;
76262;SDS011;65080;50.908;6.916;2022-11-28T22:59:02;11.97;;;7.30;;
76262;SDS011;65080;50.908;6.916;2022-11-28T23:01:31;10.77;;;6.50;;
76262;SDS011;65080;50.908;6.916;2022-11-28T23:03:59;10.07;;;7.40;;
76262;SDS011;65080;50.908;6.916;2022-11-28T23:06:29;8.50;;;6.97;;
76262;SDS011;65080;50.908;6.916;2022-11-28T23:08:58;10.37;;;7.70;;
76262;SDS011;65080;50.908;6.916;2022-11-28T23:11:28;10.20;;;6.40;;
76262;SDS011;65080;50.908;6.916;2022-11-28T23:13:58;9.90;;;7.27;;
76262;SDS011;65080;50.908;6.916;2022-11-28T23:16:30;15.97;;;7.97;;
76262;SDS011;65080;50.908;6.916;2022-11-28T23:19:00;16.60;;;7.43;;
76262;SDS011;65080;50.908;6.916;2022-11-28T23:21:30;11.37;;;7.77;;
76262;SDS011;65080;50.908;6.916;2022-11-28T23:23:59;9.93;;;7.40;;
76262;SDS011;65080;50.908;6.916;2022-11-28T23:26:29;11.93;;;8.20;;
76262;SDS011;65080;50.908;6.916;2022-11-28T23:28:58;13.53;;;9.23;;
76262;SDS011;65080;50.908;6.916;2022-11-28T23:31:27;11.93;;;8.07;;
76262;SDS011;65080;50.908;6.916;2022-11-28T23:33:58;14.40;;;8.50;;
76262;SDS011;65080;50.908;6.916;2022-11-28T23:36:28;12.57;;;8.50;;
76262;SDS011;65080;50.908;6.916;2022-11-28T23:39:05;14.10;;;9.33;;
76262;SDS011;65080;50.908;6.916;2022-11-28T23:41:36;16.77;;;9.77;;
76262;SDS011;65080;50.908;6.916;2022-11-28T23:44:04;16.10;;;8.60;;
76262;SDS011;65080;50.908;6.916;2022-11-28T23:46:34;14.13;;;9.03;;
76262;SDS011;65080;50.908;6.916;2022-11-28T23:49:02;12.93;;;9.60;;
76262;SDS011;65080;50.908;6.916;2022-11-28T23:51:31;12.57;;;8.40;;
76262;SDS011;65080;50.908;6.916;2022-11-28T23:53:59;17.87;;;9.40;;
76262;SDS011;65080;50.908;6.916;2022-11-28T23:56:28;10.97;;;8.50;;
76262;SDS011;65080;50.908;6.916;2022-11-28T23:59:00;16.03;;;8.30;;
